KOWB/OWB METAR and TAF weather

Enter ICAO airport designator
Station Type Date Time Source
KOWB METAR 2019/02/22 21:56 UTC NOAA

KOWB 222156Z 08008KT 10SM OVC042 08/01 A3025 RMK AO2 SLP259 T00830011


Station Type Date Time Source
KOWB Decoded METAR 2019/02/22 21:56 UTC NOAA

Owensboro, Owensboro-Daviess County Airport, KY, United States (KOWB) 37-44-24N 087-10-00W
Feb 22, 2019 - 04:56 PM EST / 2019.02.22 2156 UTC
Wind: from the E (080 degrees) at 9 MPH (8 KT):0
Visibility: 10 mile(s):0
Sky conditions: overcast
Temperature: 46.9 F (8.3 C)
Dew Point: 34.0 F (1.1 C)
Relative Humidity: 60%
Pressure (altimeter): 30.25 in. Hg (1024 hPa)
ob: KOWB 222156Z 08008KT 10SM OVC042 08/01 A3025 RMK AO2 SLP259 T00830011
cycle: 22

Station Type Date Time Source
KOWB TAF 2019/02/22 18:22 UTC NOAA

TAF KOWB 221720Z 2218/2318 07009KT P6SM BKN060
FM230200 07006KT P6SM OVC015
FM230800 09006KT 6SM -RADZ BR OVC008
FM231300 13006KT 6SM -SHRA BR VCTS BKN006CB


Example: see airport list